Hlavní strana
METAR-TAF:

METAR-TAF

Letiště :

Bad Vöslau, Rakousko

zeměpisná šířka: 47-57-52N, zeměpisná délka: 016-15-34E, výška: 233 m

Aktuální stav počasí

Zpráva byla vytvořena před 11 hodinami a 20 minutami, v 15:00 UTC
Západní vítr 8 kt
Teplota 1°C
Vlhkost vzduchu 86%
Tlak
Viditelnost: 5000 m
kouřmo

METAR: LOAV 121500Z 28008KT 5000 BR SCT005ST BKN010SC 01/M01

Čas: 03:20 (02:20 UTC)

Předpověď počasí

Zpráva byla vytvořena před 14 hodinami a 4 minutami, v 12:16 UTC
Předpověď platná od 12 v 12 UTC do 12 v 21 UTC
Západoseverozápadní vítr 5 kt
Viditelnost 10 km a více
Skoro jasno ve výšce 1000 ft
Oblačno až skoro zataženo ve výšce 2500 ft
Dočasný
od 12 v 12 UTC do 12 v 20 UTC
Severoseverozápadní vítr 10 kt
Viditelnost: 1400 m
Skoro jasno ve výšce 700 ft
Oblačno až skoro zataženo ve výšce 1000 ft
slabé sněžení

TAF: LOAV 121216Z 1212/1221 30005KT 9999 FEW010 BKN025 TEMPO 1212/1220 33010KT 1400 -SN FEW007 BKN010

Stav a předpovědi počasí z více než 4 000 letišť (zprávy METAR a TAF).

Červené a žluté tečky na mapě představují dostupné meteorologické stanice.

Když kurzor umístíte na tečku, zobrazí se název stanice.

Pak kliknutím zobrazíte stav a předpověď počasí.

Chcete-li změnit mapu, kliknutím na zelené tlačítko se znaménkem +mapu přiblížíte, kliknutím na zelené tlačítko se znaménkem – mapu oddálíte a kliknutím na zelené šipky přejdete na sousední mapy.


METAR-TAF: